createdAt,value
2019-04-14T00:00:01.059Z,52.03
2019-04-14T00:02:40.331Z,54.17
2019-04-14T00:05:14.628Z,54.77
2019-04-14T00:07:44.991Z,48.97
2019-04-14T00:10:16.102Z,51.87
2019-04-14T00:12:45.407Z,50.77
2019-04-14T00:15:24.670Z,53.43
2019-04-14T00:17:45.765Z,51.73
2019-04-14T00:20:16.332Z,56.87
2019-04-14T00:22:46.738Z,55.03
2019-04-14T00:25:17.339Z,49.43
2019-04-14T00:27:47.564Z,51.10
2019-04-14T00:30:18.769Z,49.67
2019-04-14T00:32:55.260Z,51.60
2019-04-14T00:35:34.227Z,48.83
2019-04-14T00:38:23.788Z,49.00
2019-04-14T00:41:18.407Z,53.13
2019-04-14T00:43:54.994Z,53.27
2019-04-14T00:46:43.194Z,48.13
2019-04-14T00:49:13.516Z,51.00
2019-04-14T00:51:44.035Z,51.17
2019-04-14T00:54:13.289Z,49.63
2019-04-14T00:56:43.350Z,49.33
2019-04-14T00:59:13.644Z,47.57
2019-04-14T01:01:43.786Z,46.50
2019-04-14T01:04:14.313Z,49.37
2019-04-14T01:06:44.710Z,49.07
2019-04-14T01:09:15.249Z,48.53
2019-04-14T01:11:44.555Z,51.10
2019-04-14T01:14:14.688Z,52.20
2019-04-14T01:16:45.105Z,51.37
2019-04-14T01:19:15.318Z,51.20
2019-04-14T01:21:45.745Z,48.47
2019-04-14T01:24:16.280Z,51.63
2019-04-14T01:26:46.366Z,52.93
2019-04-14T01:29:16.596Z,49.67
2019-04-14T01:31:47.034Z,50.67
2019-04-14T01:34:17.321Z,56.03
2019-04-14T01:36:47.489Z,47.43
2019-04-14T01:39:17.641Z,52.27
2019-04-14T01:41:47.827Z,54.93
2019-04-14T01:44:17.750Z,50.80
2019-04-14T01:46:47.775Z,49.93
2019-04-14T01:49:17.946Z,50.53
2019-04-14T01:52:16.755Z,52.73
2019-04-14T01:55:04.805Z,51.17
2019-04-14T01:58:01.860Z,45.47
2019-04-14T02:00:57.615Z,49.17
2019-04-14T02:03:28.020Z,53.00
2019-04-14T02:05:58.259Z,49.17
2019-04-14T02:08:28.416Z,49.77
2019-04-14T02:10:58.725Z,51.20
2019-04-14T02:13:28.949Z,51.97
2019-04-14T02:16:11.097Z,52.00
2019-04-14T02:18:29.633Z,50.57
2019-04-14T02:20:59.966Z,48.33
2019-04-14T02:23:30.208Z,51.77
2019-04-14T02:26:00.123Z,51.57
2019-04-14T02:28:29.455Z,52.47
2019-04-14T02:31:10.230Z,49.57
2019-04-14T02:33:54.077Z,53.67
2019-04-14T02:39:15.527Z,52.20
2019-04-14T02:41:47.051Z,49.73
2019-04-14T02:44:04.640Z,49.87
2019-04-14T02:49:16.906Z,49.10
2019-04-14T02:54:07.281Z,48.90
2019-04-14T03:01:42.273Z,44.70
2019-04-14T03:04:09.504Z,47.00
2019-04-14T03:06:33.341Z,46.87
2019-04-14T03:09:20.465Z,48.27
2019-04-14T03:11:39.766Z,46.37
2019-04-14T03:14:19.704Z,45.87
2019-04-14T03:17:14.453Z,48.60
2019-04-14T03:19:48.210Z,45.90
2019-04-14T03:25:06.154Z,44.53
2019-04-14T03:33:27.381Z,46.53
2019-04-14T03:38:12.742Z,42.30
2019-04-14T03:40:35.659Z,39.20
2019-04-14T03:43:09.919Z,48.27
2019-04-14T03:48:34.669Z,43.90
2019-04-14T03:50:37.551Z,44.83
2019-04-14T03:55:55.448Z,45.83
2019-04-14T03:58:20.970Z,47.33
2019-04-14T04:00:51.354Z,48.03
2019-04-14T04:03:21.836Z,43.77
2019-04-14T04:05:52.172Z,43.40
2019-04-14T04:08:22.385Z,43.40
2019-04-14T04:10:53.166Z,44.37
2019-04-14T04:13:23.659Z,45.17
2019-04-14T04:15:54.575Z,45.93
2019-04-14T04:18:26.562Z,46.20
2019-04-14T04:21:16.171Z,43.27
2019-04-14T04:24:04.482Z,42.57
2019-04-14T04:26:38.633Z,41.63
2019-04-14T04:29:15.855Z,44.17
2019-04-14T04:32:04.115Z,45.37
2019-04-14T04:34:45.150Z,41.97
2019-04-14T04:37:23.672Z,41.57
2019-04-14T04:39:53.920Z,40.73
2019-04-14T04:42:24.260Z,40.73
2019-04-14T04:44:53.586Z,43.60
2019-04-14T04:47:23.140Z,43.93
2019-04-14T04:49:53.363Z,42.83
2019-04-14T04:52:23.583Z,42.50
2019-04-14T04:54:53.779Z,42.27
2019-04-14T04:57:24.220Z,42.07
2019-04-14T04:59:53.984Z,41.23
2019-04-14T05:02:24.410Z,41.20
2019-04-14T05:04:54.782Z,38.80
2019-04-14T05:07:25.148Z,40.63
2019-04-14T05:10:17.367Z,38.97
2019-04-14T05:13:05.748Z,37.17
2019-04-14T05:15:48.936Z,39.50
2019-04-14T05:18:20.606Z,36.83
2019-04-14T05:20:50.865Z,37.27
2019-04-14T05:23:21.322Z,39.43
2019-04-14T05:25:51.737Z,34.40
2019-04-14T05:28:22.052Z,35.53
2019-04-14T05:30:52.433Z,32.60
2019-04-14T05:33:22.827Z,33.33
2019-04-14T05:35:53.207Z,35.83
2019-04-14T05:38:23.626Z,37.47
2019-04-14T05:40:54.016Z,37.27
2019-04-14T05:43:30.205Z,36.40
2019-04-14T05:45:54.496Z,36.13
2019-04-14T05:48:25.018Z,34.93
2019-04-14T05:50:55.430Z,36.00
2019-04-14T05:53:26.140Z,38.77
2019-04-14T05:55:56.678Z,36.10
2019-04-14T05:58:26.095Z,37.17
2019-04-14T06:00:55.851Z,37.67
2019-04-14T06:03:25.679Z,36.47
2019-04-14T06:05:55.110Z,35.93
2019-04-14T06:08:24.337Z,33.43
2019-04-14T06:10:53.896Z,35.13
2019-04-14T06:13:23.124Z,34.07
2019-04-14T06:15:52.304Z,31.13
2019-04-14T06:18:21.552Z,31.90
2019-04-14T06:20:50.875Z,36.73
2019-04-14T06:23:20.011Z,34.23
2019-04-14T06:25:49.263Z,32.40
2019-04-14T06:28:18.398Z,33.50
2019-04-14T06:31:12.579Z,31.33
2019-04-14T06:33:58.790Z,31.30
2019-04-14T06:36:45.903Z,30.17
2019-04-14T06:39:18.918Z,27.83
2019-04-14T06:41:48.091Z,28.13
2019-04-14T06:44:17.368Z,27.83
2019-04-14T06:46:46.567Z,26.83
2019-04-14T06:49:15.807Z,27.00
2019-04-14T06:51:45.025Z,26.13
2019-04-14T06:54:14.167Z,28.63
2019-04-14T06:56:43.347Z,28.17
2019-04-14T06:59:12.491Z,32.83
2019-04-14T07:01:41.683Z,28.47
2019-04-14T07:04:10.883Z,26.80
2019-04-14T07:06:40.050Z,25.83
2019-04-14T07:09:09.270Z,28.60
2019-04-14T07:11:38.433Z,27.13
2019-04-14T07:14:07.651Z,26.87
2019-04-14T07:16:36.895Z,25.50
2019-04-14T07:19:06.042Z,27.53
2019-04-14T07:21:35.207Z,28.03
2019-04-14T07:24:04.531Z,27.93
2019-04-14T07:26:33.722Z,25.30
2019-04-14T07:29:02.898Z,26.13
2019-04-14T07:31:58.767Z,19.87
2019-04-14T07:34:56.063Z,25.90
2019-04-14T07:37:42.644Z,21.70
2019-04-14T07:40:23.388Z,19.33
2019-04-14T07:43:16.370Z,25.10
2019-04-14T07:45:53.216Z,19.67
2019-04-14T07:48:27.659Z,26.43
2019-04-14T07:51:14.709Z,24.13
2019-04-14T07:53:53.735Z,25.40
2019-04-14T07:56:34.759Z,22.93
2019-04-14T07:59:22.911Z,26.67
2019-04-14T08:01:54.679Z,18.93
2019-04-14T08:04:45.692Z,24.07
2019-04-14T08:07:14.886Z,24.97
2019-04-14T08:09:44.147Z,29.07
2019-04-14T08:12:13.434Z,25.70
2019-04-14T08:14:42.667Z,26.30
2019-04-14T08:17:11.895Z,24.70
2019-04-14T08:19:41.143Z,23.67
2019-04-14T08:22:10.283Z,25.03
2019-04-14T08:24:39.539Z,25.17
2019-04-14T08:27:08.799Z,23.20
2019-04-14T08:29:38.050Z,22.70
2019-04-14T08:32:07.251Z,24.20
2019-04-14T08:34:36.516Z,25.07
2019-04-14T08:37:06.303Z,24.87
2019-04-14T08:39:36.017Z,23.43
2019-04-14T08:42:26.740Z,22.50
2019-04-14T08:44:57.571Z,24.43
2019-04-14T08:47:44.395Z,20.90
2019-04-14T08:50:24.663Z,23.07
2019-04-14T08:53:05.444Z,21.83
2019-04-14T08:55:59.827Z,23.73
2019-04-14T08:58:37.835Z,21.67
2019-04-14T09:01:11.508Z,24.83
2019-04-14T09:04:05.718Z,23.10
2019-04-14T09:06:52.230Z,25.03
2019-04-14T09:09:46.674Z,21.67
2019-04-14T09:12:24.891Z,22.87
2019-04-14T09:14:57.234Z,22.93
2019-04-14T09:17:26.038Z,22.37
2019-04-14T09:19:55.282Z,24.30
2019-04-14T09:22:24.495Z,21.40
2019-04-14T09:24:53.703Z,23.10
2019-04-14T09:27:22.855Z,20.27
2019-04-14T09:29:52.424Z,22.70
2019-04-14T09:32:22.455Z,27.00
2019-04-14T09:34:51.692Z,28.90
2019-04-14T09:37:20.839Z,24.73
2019-04-14T09:39:50.011Z,27.17
2019-04-14T09:42:19.156Z,27.70
2019-04-14T09:44:48.322Z,26.43
2019-04-14T09:47:17.621Z,25.70
2019-04-14T09:49:46.814Z,30.80
2019-04-14T09:52:16.135Z,27.83
2019-04-14T09:54:45.379Z,30.63
2019-04-14T09:57:14.522Z,29.70
2019-04-14T09:59:43.767Z,30.00
2019-04-14T10:02:12.991Z,29.73
2019-04-14T10:04:42.319Z,27.70
2019-04-14T10:07:11.488Z,27.10
2019-04-14T10:09:40.811Z,28.50
2019-04-14T10:12:10.156Z,28.70
2019-04-14T10:14:39.304Z,26.63
2019-04-14T10:17:08.625Z,27.97
2019-04-14T10:19:37.823Z,30.13
2019-04-14T10:22:06.991Z,28.53
2019-04-14T10:24:36.243Z,28.73
2019-04-14T10:27:05.401Z,29.30
2019-04-14T10:29:34.543Z,30.77
2019-04-14T10:32:03.787Z,27.37
2019-04-14T10:34:32.939Z,24.83
2019-04-14T10:37:02.113Z,28.43
2019-04-14T10:39:31.335Z,26.73
2019-04-14T10:42:00.512Z,28.00
2019-04-14T10:44:29.683Z,27.30
2019-04-14T10:46:58.857Z,26.13
2019-04-14T10:49:28.002Z,27.93
2019-04-14T10:51:57.180Z,29.27
2019-04-14T10:54:26.323Z,29.63
2019-04-14T10:56:55.500Z,25.30
2019-04-14T10:59:24.644Z,25.93
2019-04-14T11:01:53.996Z,24.87
2019-04-14T11:04:23.227Z,28.60
2019-04-14T11:06:59.733Z,26.37
2019-04-14T11:09:28.872Z,24.97
2019-04-14T11:11:58.042Z,22.60
2019-04-14T11:14:27.186Z,27.50
2019-04-14T11:16:56.452Z,24.20
2019-04-14T11:19:25.606Z,28.30
2019-04-14T11:21:54.814Z,24.60
2019-04-14T11:24:24.273Z,24.67
2019-04-14T11:26:53.587Z,24.27
2019-04-14T11:29:22.871Z,24.30
2019-04-14T11:32:11.094Z,23.87
2019-04-14T11:34:46.054Z,23.80
2019-04-14T11:37:32.887Z,25.03
2019-04-14T11:40:03.210Z,17.93
2019-04-14T11:42:32.414Z,26.00
2019-04-14T11:45:01.578Z,24.77
2019-04-14T11:47:30.983Z,23.63
2019-04-14T11:50:00.151Z,18.63
2019-04-14T11:52:29.370Z,25.03
2019-04-14T11:54:58.547Z,18.97
2019-04-14T11:57:27.770Z,23.70
2019-04-14T12:00:07.436Z,17.87
2019-04-14T12:02:55.159Z,25.00
2019-04-14T12:05:37.043Z,19.40
2019-04-14T12:08:12.950Z,26.80
2019-04-14T12:10:42.095Z,25.07
2019-04-14T12:13:11.315Z,23.80
2019-04-14T12:15:40.521Z,23.73
2019-04-14T12:18:09.764Z,19.20
2019-04-14T12:20:39.139Z,25.43
2019-04-14T12:23:09.398Z,21.87
2019-04-14T12:25:38.593Z,16.87
2019-04-14T12:28:08.974Z,24.63
2019-04-14T12:30:39.819Z,19.03
2019-04-14T12:33:09.180Z,22.63
2019-04-14T12:35:38.342Z,19.33
2019-04-14T12:38:07.583Z,17.97
2019-04-14T12:40:37.133Z,22.67
2019-04-14T12:43:25.480Z,20.67
2019-04-14T12:46:19.761Z,22.30
2019-04-14T12:48:56.188Z,24.27
2019-04-14T12:51:29.503Z,21.60
2019-04-14T12:53:58.747Z,17.57
2019-04-14T12:56:28.911Z,21.73
2019-04-14T12:59:22.837Z,21.83
2019-04-14T13:02:04.682Z,20.87
2019-04-14T13:04:33.867Z,27.40
2019-04-14T13:07:03.203Z,22.83
2019-04-14T13:09:32.347Z,21.17
2019-04-14T13:12:01.518Z,23.03
2019-04-14T13:14:30.654Z,22.53
2019-04-14T13:16:59.827Z,30.30
2019-04-14T13:19:28.970Z,23.30
2019-04-14T13:21:58.215Z,26.97
2019-04-14T13:24:27.458Z,25.90
2019-04-14T13:26:56.644Z,25.60
2019-04-14T13:29:25.935Z,26.40
2019-04-14T13:31:55.175Z,24.83
2019-04-14T13:34:24.330Z,25.63
2019-04-14T13:36:53.569Z,27.57
2019-04-14T13:39:22.788Z,24.87
2019-04-14T13:41:51.972Z,25.33
2019-04-14T13:44:21.126Z,28.53
2019-04-14T13:46:50.371Z,24.37
2019-04-14T13:49:19.517Z,26.03
2019-04-14T13:51:48.763Z,26.43
2019-04-14T13:54:17.982Z,29.13
2019-04-14T13:56:47.156Z,31.00
2019-04-14T13:59:16.370Z,26.17
2019-04-14T14:01:45.687Z,27.30
2019-04-14T14:04:14.855Z,29.27
2019-04-14T14:06:44.159Z,28.10
2019-04-14T14:09:13.492Z,26.67
2019-04-14T14:12:04.627Z,26.40
2019-04-14T14:14:52.823Z,27.33
2019-04-14T14:17:43.055Z,29.40
2019-04-14T14:20:20.822Z,31.10
2019-04-14T14:22:59.482Z,34.07
2019-04-14T14:25:33.215Z,30.33
2019-04-14T14:28:02.486Z,28.83
2019-04-14T14:30:31.711Z,30.40
2019-04-14T14:33:00.947Z,28.20
2019-04-14T14:35:30.091Z,28.67
2019-04-14T14:37:59.339Z,30.00
2019-04-14T14:40:28.574Z,26.63
2019-04-14T14:42:57.812Z,27.00
2019-04-14T14:45:44.701Z,29.27
2019-04-14T14:48:26.652Z,28.97
2019-04-14T14:51:05.763Z,28.53
2019-04-14T14:53:34.935Z,29.63
2019-04-14T14:56:04.878Z,25.50
2019-04-14T14:58:34.071Z,28.70
2019-04-14T15:01:04.354Z,28.33
2019-04-14T15:03:33.614Z,30.63
2019-04-14T15:06:02.859Z,29.27
2019-04-14T15:08:32.019Z,27.47
2019-04-14T15:11:04.083Z,30.93
2019-04-14T15:13:32.222Z,27.40
2019-04-14T15:16:01.439Z,30.30
2019-04-14T15:18:30.658Z,27.73
2019-04-14T15:20:59.903Z,24.57
2019-04-14T15:23:29.376Z,23.53
2019-04-14T15:25:58.675Z,23.50
2019-04-14T15:28:27.918Z,27.53
2019-04-14T15:30:57.151Z,25.87
2019-04-14T15:33:26.311Z,24.00
2019-04-14T15:35:55.478Z,21.13
2019-04-14T15:38:24.626Z,24.50
2019-04-14T15:40:53.877Z,22.87
2019-04-14T15:43:23.108Z,20.37
2019-04-14T15:45:52.479Z,19.70
2019-04-14T15:48:21.753Z,21.80
2019-04-14T15:50:51.015Z,23.50
2019-04-14T15:53:20.159Z,24.83
2019-04-14T15:55:49.630Z,23.33
2019-04-14T15:58:36.782Z,24.33
2019-04-14T16:01:24.100Z,23.07
2019-04-14T16:04:01.207Z,23.00
2019-04-14T16:06:58.451Z,23.90
2019-04-14T16:09:39.857Z,23.33
2019-04-14T16:12:27.134Z,21.17
2019-04-14T16:15:27.483Z,23.23
2019-04-14T16:18:27.751Z,20.30
2019-04-14T16:20:57.023Z,21.57
2019-04-14T16:23:26.182Z,17.43
2019-04-14T16:26:03.826Z,18.23
2019-04-14T16:28:38.255Z,19.23
2019-04-14T16:31:32.361Z,18.77
2019-04-14T16:34:52.302Z,18.60
2019-04-14T16:37:21.630Z,18.70
2019-04-14T16:39:50.884Z,18.47
2019-04-14T16:42:20.137Z,18.93
2019-04-14T16:44:49.295Z,17.60
2019-04-14T16:47:18.557Z,17.37
2019-04-14T16:49:47.771Z,17.93
2019-04-14T16:52:48.333Z,18.60
2019-04-14T16:55:29.778Z,19.73
2019-04-14T16:58:36.499Z,17.93
2019-04-14T17:01:08.747Z,19.07
2019-04-14T17:03:37.951Z,17.87
2019-04-14T17:06:07.243Z,17.67
2019-04-14T17:08:36.497Z,17.63
2019-04-14T17:11:05.787Z,17.27
2019-04-14T17:13:38.331Z,16.60
2019-04-14T17:16:36.799Z,17.47
2019-04-14T17:19:12.956Z,18.40
2019-04-14T17:21:52.731Z,18.70
2019-04-14T17:24:39.502Z,17.33
2019-04-14T17:27:21.228Z,18.03
2019-04-14T17:29:57.306Z,18.27
2019-04-14T17:32:54.747Z,18.73
2019-04-14T17:35:42.960Z,16.97
2019-04-14T17:38:29.387Z,18.53
2019-04-14T17:41:16.363Z,18.17
2019-04-14T17:43:53.594Z,17.03
2019-04-14T17:46:40.843Z,18.10
2019-04-14T17:49:19.507Z,18.60
2019-04-14T17:51:52.412Z,17.87
2019-04-14T17:54:46.947Z,14.93
2019-04-14T17:57:35.227Z,18.00
2019-04-14T18:00:16.504Z,17.67
2019-04-14T18:03:10.679Z,17.03
2019-04-14T18:05:46.327Z,14.90
2019-04-14T18:08:28.370Z,15.73
2019-04-14T18:11:03.281Z,15.67
2019-04-14T18:14:06.702Z,14.40
2019-04-14T18:16:51.312Z,14.10
2019-04-14T18:19:28.115Z,15.43
2019-04-14T18:21:57.396Z,14.50
2019-04-14T18:24:26.599Z,13.80
2019-04-14T18:26:55.898Z,14.57
2019-04-14T18:29:44.127Z,15.10
2019-04-14T18:32:33.327Z,14.27
2019-04-14T18:35:21.658Z,13.90
2019-04-14T18:38:12.812Z,12.13
2019-04-14T18:41:16.452Z,12.53
2019-04-14T18:44:03.455Z,12.83
2019-04-14T18:46:50.291Z,12.47
2019-04-14T18:49:44.847Z,11.87
2019-04-14T18:52:33.020Z,10.37
2019-04-14T18:55:18.093Z,13.13
2019-04-14T18:57:57.926Z,10.67
2019-04-14T19:00:38.932Z,12.70
2019-04-14T19:03:08.218Z,11.07
2019-04-14T19:05:37.455Z,10.47
2019-04-14T19:08:06.649Z,12.40
2019-04-14T19:10:36.052Z,14.10
2019-04-14T19:13:20.972Z,11.83
2019-04-14T19:16:04.434Z,15.23
2019-04-14T19:18:36.448Z,11.97
2019-04-14T19:21:15.303Z,13.27
2019-04-14T19:23:46.450Z,14.27
2019-04-14T19:26:15.524Z,15.80
2019-04-14T19:28:44.670Z,14.27
2019-04-14T19:31:13.915Z,11.90
2019-04-14T19:33:43.116Z,13.83
2019-04-14T19:36:12.335Z,14.57
2019-04-14T19:38:41.495Z,15.43
2019-04-14T19:41:11.089Z,16.77
2019-04-14T19:43:40.478Z,19.07
2019-04-14T19:46:09.648Z,14.97
2019-04-14T19:48:38.872Z,16.27
2019-04-14T19:51:08.093Z,17.73
2019-04-14T19:53:37.239Z,15.67
2019-04-14T19:56:06.498Z,15.80
2019-04-14T19:58:35.762Z,15.33
2019-04-14T20:01:07.170Z,16.83
2019-04-14T20:03:36.659Z,18.47
2019-04-14T20:06:06.468Z,18.43
2019-04-14T20:08:35.719Z,18.57
2019-04-14T20:11:05.257Z,19.93
2019-04-14T20:13:39.051Z,22.17
2019-04-14T20:16:19.684Z,19.90
2019-04-14T20:19:10.611Z,18.83
2019-04-14T20:21:50.599Z,19.13
2019-04-14T20:24:29.097Z,17.17
2019-04-14T20:27:08.347Z,17.50
2019-04-14T20:29:39.914Z,16.97
2019-04-14T20:32:12.584Z,21.43
2019-04-14T20:34:41.879Z,18.77
2019-04-14T20:37:11.560Z,22.17
2019-04-14T20:39:41.331Z,22.47
2019-04-14T20:42:11.160Z,20.27
2019-04-14T20:44:40.530Z,20.57
2019-04-14T20:47:10.536Z,22.80
2019-04-14T20:49:40.115Z,23.60
2019-04-14T20:52:09.445Z,21.73
2019-04-14T20:54:39.133Z,22.27
2019-04-14T20:57:08.370Z,20.87
2019-04-14T20:59:38.107Z,24.63
2019-04-14T21:02:22.337Z,21.80
2019-04-14T21:05:16.452Z,21.20
2019-04-14T21:08:03.615Z,20.83
2019-04-14T21:10:43.424Z,24.00
2019-04-14T21:13:20.186Z,24.37
2019-04-14T21:16:14.439Z,26.87
2019-04-14T21:18:49.630Z,22.57
2019-04-14T21:21:37.960Z,24.80
2019-04-14T21:24:11.924Z,22.57
2019-04-14T21:26:52.342Z,22.60
2019-04-14T21:29:35.186Z,24.93
2019-04-14T21:32:14.393Z,27.43
2019-04-14T21:35:11.525Z,25.70
2019-04-14T21:38:02.567Z,23.77
2019-04-14T21:40:59.887Z,29.43
2019-04-14T21:43:29.063Z,24.33
2019-04-14T21:45:58.526Z,23.00
2019-04-14T21:48:27.704Z,25.10
2019-04-14T21:50:56.958Z,25.33
2019-04-14T21:53:26.138Z,26.17
2019-04-14T21:55:55.280Z,24.53
2019-04-14T21:58:30.419Z,22.40
2019-04-14T22:01:52.731Z,22.87
2019-04-14T22:04:46.999Z,23.73
2019-04-14T22:07:41.023Z,26.13
2019-04-14T22:10:28.751Z,23.33
2019-04-14T22:12:57.971Z,21.60
2019-04-14T22:15:27.324Z,22.20
2019-04-14T22:17:57.169Z,21.30
2019-04-14T22:20:26.547Z,23.60
2019-04-14T22:22:56.186Z,22.97
2019-04-14T22:25:25.534Z,22.90
2019-04-14T22:27:54.777Z,23.10
2019-04-14T22:30:24.127Z,21.97
2019-04-14T22:32:53.402Z,23.03
2019-04-14T22:35:22.780Z,20.67
2019-04-14T22:37:52.052Z,22.37
2019-04-14T22:40:21.340Z,26.73
2019-04-14T22:42:50.635Z,22.10
2019-04-14T22:45:20.004Z,23.13
2019-04-14T22:47:49.231Z,26.90
2019-04-14T22:50:18.750Z,26.67
2019-04-14T22:52:47.925Z,26.13
2019-04-14T22:55:17.200Z,26.07
2019-04-14T22:57:46.517Z,26.53
2019-04-14T23:00:26.883Z,25.97
2019-04-14T23:03:18.586Z,26.10
2019-04-14T23:06:12.871Z,28.10
2019-04-14T23:09:03.991Z,23.77
2019-04-14T23:11:49.327Z,26.37
2019-04-14T23:14:29.461Z,28.20
2019-04-14T23:17:17.661Z,28.50
2019-04-14T23:19:51.407Z,25.43
2019-04-14T23:22:28.618Z,27.33
2019-04-14T23:24:57.856Z,27.50
2019-04-14T23:27:27.172Z,26.47
2019-04-14T23:29:56.528Z,26.93
2019-04-14T23:32:25.774Z,28.17
2019-04-14T23:34:55.003Z,29.47
2019-04-14T23:37:24.211Z,29.03
2019-04-14T23:39:53.442Z,31.73
2019-04-14T23:42:22.616Z,28.97
2019-04-14T23:44:51.899Z,26.77
2019-04-14T23:47:21.170Z,27.93
2019-04-14T23:49:50.402Z,30.57
2019-04-14T23:52:19.610Z,29.57
2019-04-14T23:54:48.762Z,28.97
2019-04-14T23:57:17.991Z,27.03
2019-04-14T23:59:47.140Z,31.00
